sensor_id;sensor_type;location;lat;lon;timestamp;P1;durP1;ratioP1;P2;durP2;ratioP2
8632;SDS011;4354;49.832;10.746;2023-11-21T00:01:06;2.60;;;1.17;;
8632;SDS011;4354;49.832;10.746;2023-11-21T00:03:35;3.57;;;1.60;;
8632;SDS011;4354;49.832;10.746;2023-11-21T00:06:02;2.97;;;1.70;;
8632;SDS011;4354;49.832;10.746;2023-11-21T00:08:29;5.67;;;1.90;;
8632;SDS011;4354;49.832;10.746;2023-11-21T00:10:56;5.63;;;2.10;;
8632;SDS011;4354;49.832;10.746;2023-11-21T00:13:23;4.43;;;1.80;;
8632;SDS011;4354;49.832;10.746;2023-11-21T00:15:51;3.23;;;1.60;;
8632;SDS011;4354;49.832;10.746;2023-11-21T00:18:17;2.27;;;1.40;;
8632;SDS011;4354;49.832;10.746;2023-11-21T00:20:44;7.77;;;1.70;;
8632;SDS011;4354;49.832;10.746;2023-11-21T00:23:11;3.10;;;1.70;;
8632;SDS011;4354;49.832;10.746;2023-11-21T00:25:38;4.87;;;1.67;;
8632;SDS011;4354;49.832;10.746;2023-11-21T00:28:06;3.73;;;1.80;;
8632;SDS011;4354;49.832;10.746;2023-11-21T00:30:33;3.03;;;1.80;;
8632;SDS011;4354;49.832;10.746;2023-11-21T00:33:00;5.57;;;2.00;;
8632;SDS011;4354;49.832;10.746;2023-11-21T00:35:26;6.27;;;2.13;;
8632;SDS011;4354;49.832;10.746;2023-11-21T00:37:53;3.57;;;2.10;;
8632;SDS011;4354;49.832;10.746;2023-11-21T00:40:20;3.33;;;1.80;;
8632;SDS011;4354;49.832;10.746;2023-11-21T00:42:47;3.67;;;1.80;;
8632;SDS011;4354;49.832;10.746;2023-11-21T00:45:14;4.90;;;1.70;;
8632;SDS011;4354;49.832;10.746;2023-11-21T00:47:41;3.00;;;2.03;;
8632;SDS011;4354;49.832;10.746;2023-11-21T00:50:08;4.30;;;2.07;;
8632;SDS011;4354;49.832;10.746;2023-11-21T00:52:36;2.83;;;1.73;;
8632;SDS011;4354;49.832;10.746;2023-11-21T00:55:04;3.93;;;1.73;;
8632;SDS011;4354;49.832;10.746;2023-11-21T00:57:33;2.03;;;1.80;;
8632;SDS011;4354;49.832;10.746;2023-11-21T01:00:01;3.40;;;2.20;;
8632;SDS011;4354;49.832;10.746;2023-11-21T01:02:28;3.60;;;2.07;;
8632;SDS011;4354;49.832;10.746;2023-11-21T01:04:55;2.87;;;1.90;;
8632;SDS011;4354;49.832;10.746;2023-11-21T01:07:22;3.97;;;1.77;;
8632;SDS011;4354;49.832;10.746;2023-11-21T01:09:49;2.17;;;1.50;;
8632;SDS011;4354;49.832;10.746;2023-11-21T01:12:16;5.07;;;1.97;;
8632;SDS011;4354;49.832;10.746;2023-11-21T01:14:43;4.30;;;1.90;;
8632;SDS011;4354;49.832;10.746;2023-11-21T01:17:11;4.43;;;1.80;;
8632;SDS011;4354;49.832;10.746;2023-11-21T01:19:38;2.33;;;1.63;;
8632;SDS011;4354;49.832;10.746;2023-11-21T01:22:05;1.93;;;1.30;;
8632;SDS011;4354;49.832;10.746;2023-11-21T01:24:32;2.83;;;1.70;;
8632;SDS011;4354;49.832;10.746;2023-11-21T01:26:59;4.30;;;1.70;;
8632;SDS011;4354;49.832;10.746;2023-11-21T01:29:25;3.13;;;1.87;;
8632;SDS011;4354;49.832;10.746;2023-11-21T01:31:52;5.60;;;2.00;;
8632;SDS011;4354;49.832;10.746;2023-11-21T01:34:19;3.70;;;1.73;;
8632;SDS011;4354;49.832;10.746;2023-11-21T01:36:47;3.50;;;1.63;;
8632;SDS011;4354;49.832;10.746;2023-11-21T01:39:13;2.33;;;1.60;;
8632;SDS011;4354;49.832;10.746;2023-11-21T01:41:42;3.43;;;1.67;;
8632;SDS011;4354;49.832;10.746;2023-11-21T01:44:10;2.47;;;1.67;;
8632;SDS011;4354;49.832;10.746;2023-11-21T01:46:37;3.00;;;1.63;;
8632;SDS011;4354;49.832;10.746;2023-11-21T01:49:05;3.60;;;1.63;;
8632;SDS011;4354;49.832;10.746;2023-11-21T01:51:32;5.67;;;1.57;;
8632;SDS011;4354;49.832;10.746;2023-11-21T01:54:00;2.87;;;1.50;;
8632;SDS011;4354;49.832;10.746;2023-11-21T01:56:27;1.97;;;1.60;;
8632;SDS011;4354;49.832;10.746;2023-11-21T01:58:54;6.27;;;1.50;;
8632;SDS011;4354;49.832;10.746;2023-11-21T02:01:20;4.47;;;1.70;;
8632;SDS011;4354;49.832;10.746;2023-11-21T02:03:47;3.43;;;1.40;;
8632;SDS011;4354;49.832;10.746;2023-11-21T02:06:14;2.10;;;1.60;;
8632;SDS011;4354;49.832;10.746;2023-11-21T02:08:41;2.53;;;1.33;;
8632;SDS011;4354;49.832;10.746;2023-11-21T02:11:10;3.83;;;1.47;;
8632;SDS011;4354;49.832;10.746;2023-11-21T02:13:39;2.93;;;1.47;;
8632;SDS011;4354;49.832;10.746;2023-11-21T02:16:13;3.33;;;1.50;;
8632;SDS011;4354;49.832;10.746;2023-11-21T02:18:41;2.67;;;1.70;;
8632;SDS011;4354;49.832;10.746;2023-11-21T02:21:08;1.83;;;1.30;;
8632;SDS011;4354;49.832;10.746;2023-11-21T02:23:36;3.43;;;1.40;;
8632;SDS011;4354;49.832;10.746;2023-11-21T02:26:04;3.07;;;1.40;;
8632;SDS011;4354;49.832;10.746;2023-11-21T02:28:32;3.53;;;1.50;;
8632;SDS011;4354;49.832;10.746;2023-11-21T02:30:59;4.33;;;1.77;;
8632;SDS011;4354;49.832;10.746;2023-11-21T02:33:26;3.57;;;1.73;;
8632;SDS011;4354;49.832;10.746;2023-11-21T02:35:53;3.33;;;1.50;;
8632;SDS011;4354;49.832;10.746;2023-11-21T02:38:21;2.90;;;1.70;;
8632;SDS011;4354;49.832;10.746;2023-11-21T02:40:48;2.07;;;1.80;;
8632;SDS011;4354;49.832;10.746;2023-11-21T02:43:15;2.73;;;1.70;;
8632;SDS011;4354;49.832;10.746;2023-11-21T02:45:42;2.50;;;1.50;;
8632;SDS011;4354;49.832;10.746;2023-11-21T02:48:09;3.47;;;1.90;;
8632;SDS011;4354;49.832;10.746;2023-11-21T02:50:36;2.20;;;1.50;;
8632;SDS011;4354;49.832;10.746;2023-11-21T02:53:03;5.70;;;1.80;;
8632;SDS011;4354;49.832;10.746;2023-11-21T02:55:32;4.20;;;2.40;;
8632;SDS011;4354;49.832;10.746;2023-11-21T02:58:02;6.90;;;2.60;;
8632;SDS011;4354;49.832;10.746;2023-11-21T03:00:32;3.80;;;2.20;;
8632;SDS011;4354;49.832;10.746;2023-11-21T03:02:59;2.83;;;2.10;;
8632;SDS011;4354;49.832;10.746;2023-11-21T03:05:27;5.17;;;2.40;;
8632;SDS011;4354;49.832;10.746;2023-11-21T03:07:55;5.53;;;2.50;;
8632;SDS011;4354;49.832;10.746;2023-11-21T03:10:22;5.17;;;2.60;;
8632;SDS011;4354;49.832;10.746;2023-11-21T03:12:49;4.57;;;2.30;;
8632;SDS011;4354;49.832;10.746;2023-11-21T03:15:16;4.43;;;2.67;;
8632;SDS011;4354;49.832;10.746;2023-11-21T03:17:43;4.27;;;2.43;;
8632;SDS011;4354;49.832;10.746;2023-11-21T03:20:10;2.70;;;2.40;;
8632;SDS011;4354;49.832;10.746;2023-11-21T03:22:38;2.63;;;2.13;;
8632;SDS011;4354;49.832;10.746;2023-11-21T03:25:05;2.93;;;1.83;;
8632;SDS011;4354;49.832;10.746;2023-11-21T03:27:33;2.97;;;1.90;;
8632;SDS011;4354;49.832;10.746;2023-11-21T03:29:59;2.97;;;2.37;;
8632;SDS011;4354;49.832;10.746;2023-11-21T03:32:26;4.57;;;2.60;;
8632;SDS011;4354;49.832;10.746;2023-11-21T03:34:54;2.90;;;2.53;;
8632;SDS011;4354;49.832;10.746;2023-11-21T03:37:22;3.90;;;2.73;;
8632;SDS011;4354;49.832;10.746;2023-11-21T03:39:49;5.73;;;2.73;;
8632;SDS011;4354;49.832;10.746;2023-11-21T03:42:17;3.20;;;2.37;;
8632;SDS011;4354;49.832;10.746;2023-11-21T03:44:44;2.37;;;2.10;;
8632;SDS011;4354;49.832;10.746;2023-11-21T03:47:10;3.40;;;2.33;;
8632;SDS011;4354;49.832;10.746;2023-11-21T03:49:37;3.30;;;2.40;;
8632;SDS011;4354;49.832;10.746;2023-11-21T03:52:04;2.73;;;2.30;;
8632;SDS011;4354;49.832;10.746;2023-11-21T03:54:31;3.77;;;2.90;;
8632;SDS011;4354;49.832;10.746;2023-11-21T03:56:58;6.73;;;2.57;;
8632;SDS011;4354;49.832;10.746;2023-11-21T03:59:25;5.60;;;2.50;;
8632;SDS011;4354;49.832;10.746;2023-11-21T04:01:51;4.27;;;2.93;;
8632;SDS011;4354;49.832;10.746;2023-11-21T04:04:18;5.67;;;3.70;;
8632;SDS011;4354;49.832;10.746;2023-11-21T04:06:46;3.90;;;3.07;;
8632;SDS011;4354;49.832;10.746;2023-11-21T04:09:12;7.30;;;5.07;;
8632;SDS011;4354;49.832;10.746;2023-11-21T04:11:39;4.97;;;4.00;;
8632;SDS011;4354;49.832;10.746;2023-11-21T04:14:06;4.60;;;3.07;;
8632;SDS011;4354;49.832;10.746;2023-11-21T04:16:33;5.10;;;3.97;;
8632;SDS011;4354;49.832;10.746;2023-11-21T04:19:00;3.13;;;2.80;;
8632;SDS011;4354;49.832;10.746;2023-11-21T04:21:27;5.50;;;3.40;;
8632;SDS011;4354;49.832;10.746;2023-11-21T04:23:54;5.47;;;3.20;;
8632;SDS011;4354;49.832;10.746;2023-11-21T04:26:21;4.43;;;3.30;;
8632;SDS011;4354;49.832;10.746;2023-11-21T04:28:47;4.73;;;3.03;;
8632;SDS011;4354;49.832;10.746;2023-11-21T04:31:14;3.73;;;3.30;;
8632;SDS011;4354;49.832;10.746;2023-11-21T04:33:41;5.47;;;3.30;;
8632;SDS011;4354;49.832;10.746;2023-11-21T04:36:08;5.63;;;3.30;;
8632;SDS011;4354;49.832;10.746;2023-11-21T04:38:35;4.53;;;3.20;;
8632;SDS011;4354;49.832;10.746;2023-11-21T04:41:01;6.17;;;2.60;;
8632;SDS011;4354;49.832;10.746;2023-11-21T04:43:29;4.40;;;3.30;;
8632;SDS011;4354;49.832;10.746;2023-11-21T04:45:56;5.07;;;3.60;;
8632;SDS011;4354;49.832;10.746;2023-11-21T04:48:22;6.50;;;3.93;;
8632;SDS011;4354;49.832;10.746;2023-11-21T04:50:49;7.90;;;4.10;;
8632;SDS011;4354;49.832;10.746;2023-11-21T04:53:17;5.13;;;3.67;;
8632;SDS011;4354;49.832;10.746;2023-11-21T04:55:43;7.10;;;3.57;;
8632;SDS011;4354;49.832;10.746;2023-11-21T04:58:10;5.00;;;3.50;;
8632;SDS011;4354;49.832;10.746;2023-11-21T05:00:38;7.80;;;4.53;;
8632;SDS011;4354;49.832;10.746;2023-11-21T05:03:06;5.83;;;4.17;;
8632;SDS011;4354;49.832;10.746;2023-11-21T05:05:33;5.70;;;4.43;;
8632;SDS011;4354;49.832;10.746;2023-11-21T05:08:00;7.00;;;4.87;;
8632;SDS011;4354;49.832;10.746;2023-11-21T05:10:28;7.83;;;5.30;;
8632;SDS011;4354;49.832;10.746;2023-11-21T05:12:55;9.80;;;5.97;;
8632;SDS011;4354;49.832;10.746;2023-11-21T05:15:23;7.67;;;5.77;;
8632;SDS011;4354;49.832;10.746;2023-11-21T05:17:50;6.23;;;5.47;;
8632;SDS011;4354;49.832;10.746;2023-11-21T05:20:18;6.87;;;4.93;;
8632;SDS011;4354;49.832;10.746;2023-11-21T05:22:47;10.80;;;9.70;;
8632;SDS011;4354;49.832;10.746;2023-11-21T05:25:17;11.50;;;9.27;;
8632;SDS011;4354;49.832;10.746;2023-11-21T05:27:47;7.73;;;6.60;;
8632;SDS011;4354;49.832;10.746;2023-11-21T05:30:14;6.50;;;5.40;;
8632;SDS011;4354;49.832;10.746;2023-11-21T05:32:41;6.90;;;5.60;;
8632;SDS011;4354;49.832;10.746;2023-11-21T05:35:10;7.47;;;5.47;;
8632;SDS011;4354;49.832;10.746;2023-11-21T05:37:43;5.20;;;4.70;;
8632;SDS011;4354;49.832;10.746;2023-11-21T05:40:14;5.77;;;4.87;;
8632;SDS011;4354;49.832;10.746;2023-11-21T05:42:41;9.10;;;6.00;;
8632;SDS011;4354;49.832;10.746;2023-11-21T05:45:08;8.03;;;5.53;;
8632;SDS011;4354;49.832;10.746;2023-11-21T05:47:37;7.33;;;4.83;;
8632;SDS011;4354;49.832;10.746;2023-11-21T05:50:07;9.00;;;5.03;;
8632;SDS011;4354;49.832;10.746;2023-11-21T05:52:38;6.13;;;5.50;;
8632;SDS011;4354;49.832;10.746;2023-11-21T05:55:06;6.50;;;5.30;;
8632;SDS011;4354;49.832;10.746;2023-11-21T05:57:37;7.20;;;6.20;;
8632;SDS011;4354;49.832;10.746;2023-11-21T06:00:06;6.97;;;5.43;;
8632;SDS011;4354;49.832;10.746;2023-11-21T06:02:38;7.43;;;5.40;;
8632;SDS011;4354;49.832;10.746;2023-11-21T06:05:06;7.10;;;6.20;;
8632;SDS011;4354;49.832;10.746;2023-11-21T06:07:34;6.87;;;5.03;;
8632;SDS011;4354;49.832;10.746;2023-11-21T06:10:02;8.73;;;6.10;;
8632;SDS011;4354;49.832;10.746;2023-11-21T06:12:33;6.03;;;5.23;;
8632;SDS011;4354;49.832;10.746;2023-11-21T06:15:02;6.10;;;5.50;;
8632;SDS011;4354;49.832;10.746;2023-11-21T06:17:31;7.07;;;6.37;;
8632;SDS011;4354;49.832;10.746;2023-11-21T06:19:58;7.03;;;6.20;;
8632;SDS011;4354;49.832;10.746;2023-11-21T06:22:25;6.93;;;6.03;;
8632;SDS011;4354;49.832;10.746;2023-11-21T06:24:52;11.30;;;6.53;;
8632;SDS011;4354;49.832;10.746;2023-11-21T06:27:19;8.60;;;5.90;;
8632;SDS011;4354;49.832;10.746;2023-11-21T06:29:46;6.83;;;5.80;;
8632;SDS011;4354;49.832;10.746;2023-11-21T06:32:13;6.80;;;5.10;;
8632;SDS011;4354;49.832;10.746;2023-11-21T06:34:40;10.07;;;5.47;;
8632;SDS011;4354;49.832;10.746;2023-11-21T06:37:07;7.40;;;5.70;;
8632;SDS011;4354;49.832;10.746;2023-11-21T06:39:34;7.47;;;5.60;;
8632;SDS011;4354;49.832;10.746;2023-11-21T06:42:01;6.63;;;5.27;;
8632;SDS011;4354;49.832;10.746;2023-11-21T06:44:28;8.17;;;4.83;;
8632;SDS011;4354;49.832;10.746;2023-11-21T06:46:55;8.07;;;6.00;;
8632;SDS011;4354;49.832;10.746;2023-11-21T06:49:22;6.23;;;5.57;;
8632;SDS011;4354;49.832;10.746;2023-11-21T06:51:49;7.80;;;5.87;;
8632;SDS011;4354;49.832;10.746;2023-11-21T06:54:16;10.63;;;6.70;;
8632;SDS011;4354;49.832;10.746;2023-11-21T06:56:43;13.77;;;7.00;;
8632;SDS011;4354;49.832;10.746;2023-11-21T06:59:09;11.33;;;7.30;;
8632;SDS011;4354;49.832;10.746;2023-11-21T07:01:36;11.90;;;7.43;;
8632;SDS011;4354;49.832;10.746;2023-11-21T07:04:05;9.60;;;7.67;;
8632;SDS011;4354;49.832;10.746;2023-11-21T07:06:33;11.33;;;8.10;;
8632;SDS011;4354;49.832;10.746;2023-11-21T07:08:59;9.93;;;8.00;;
8632;SDS011;4354;49.832;10.746;2023-11-21T07:11:27;9.60;;;8.17;;
8632;SDS011;4354;49.832;10.746;2023-11-21T07:13:54;10.00;;;8.37;;
8632;SDS011;4354;49.832;10.746;2023-11-21T07:16:21;8.80;;;6.83;;
8632;SDS011;4354;49.832;10.746;2023-11-21T07:18:48;11.60;;;8.63;;
8632;SDS011;4354;49.832;10.746;2023-11-21T07:21:15;14.17;;;8.93;;
8632;SDS011;4354;49.832;10.746;2023-11-21T07:23:42;13.47;;;8.40;;
8632;SDS011;4354;49.832;10.746;2023-11-21T07:26:09;17.70;;;8.47;;
8632;SDS011;4354;49.832;10.746;2023-11-21T07:28:37;10.00;;;8.33;;
8632;SDS011;4354;49.832;10.746;2023-11-21T07:31:03;9.53;;;8.03;;
8632;SDS011;4354;49.832;10.746;2023-11-21T07:33:31;10.47;;;8.10;;
8632;SDS011;4354;49.832;10.746;2023-11-21T07:35:57;10.57;;;8.23;;
8632;SDS011;4354;49.832;10.746;2023-11-21T07:38:24;10.27;;;8.03;;
8632;SDS011;4354;49.832;10.746;2023-11-21T07:40:51;12.17;;;8.10;;
8632;SDS011;4354;49.832;10.746;2023-11-21T07:43:18;11.43;;;8.77;;
8632;SDS011;4354;49.832;10.746;2023-11-21T07:45:45;15.00;;;8.60;;
8632;SDS011;4354;49.832;10.746;2023-11-21T07:48:12;13.47;;;7.87;;
8632;SDS011;4354;49.832;10.746;2023-11-21T07:50:39;13.17;;;7.03;;
8632;SDS011;4354;49.832;10.746;2023-11-21T07:53:06;9.00;;;6.30;;
8632;SDS011;4354;49.832;10.746;2023-11-21T07:55:33;8.13;;;6.33;;
8632;SDS011;4354;49.832;10.746;2023-11-21T07:57:59;7.07;;;6.00;;
8632;SDS011;4354;49.832;10.746;2023-11-21T08:00:27;11.80;;;5.37;;
8632;SDS011;4354;49.832;10.746;2023-11-21T08:02:56;8.20;;;5.43;;
8632;SDS011;4354;49.832;10.746;2023-11-21T08:05:23;8.60;;;5.60;;
8632;SDS011;4354;49.832;10.746;2023-11-21T08:08:02;8.60;;;5.67;;
8632;SDS011;4354;49.832;10.746;2023-11-21T08:10:29;8.13;;;6.13;;
8632;SDS011;4354;49.832;10.746;2023-11-21T08:12:56;7.77;;;6.50;;
8632;SDS011;4354;49.832;10.746;2023-11-21T08:15:23;8.00;;;6.07;;
8632;SDS011;4354;49.832;10.746;2023-11-21T08:17:50;7.10;;;5.53;;
8632;SDS011;4354;49.832;10.746;2023-11-21T08:20:17;6.30;;;5.40;;
8632;SDS011;4354;49.832;10.746;2023-11-21T08:22:44;7.97;;;5.57;;
8632;SDS011;4354;49.832;10.746;2023-11-21T08:25:14;10.80;;;6.43;;
8632;SDS011;4354;49.832;10.746;2023-11-21T08:27:40;7.10;;;5.80;;
8632;SDS011;4354;49.832;10.746;2023-11-21T08:30:07;7.93;;;5.70;;
8632;SDS011;4354;49.832;10.746;2023-11-21T08:32:34;11.23;;;6.67;;
8632;SDS011;4354;49.832;10.746;2023-11-21T08:35:01;7.93;;;6.63;;
8632;SDS011;4354;49.832;10.746;2023-11-21T08:37:28;6.90;;;6.10;;
8632;SDS011;4354;49.832;10.746;2023-11-21T08:39:58;9.37;;;6.83;;
8632;SDS011;4354;49.832;10.746;2023-11-21T08:42:26;10.30;;;7.30;;
8632;SDS011;4354;49.832;10.746;2023-11-21T08:44:56;8.83;;;7.43;;
8632;SDS011;4354;49.832;10.746;2023-11-21T08:47:26;8.53;;;6.03;;
8632;SDS011;4354;49.832;10.746;2023-11-21T08:49:54;11.00;;;7.60;;
8632;SDS011;4354;49.832;10.746;2023-11-21T08:52:20;9.33;;;6.17;;
8632;SDS011;4354;49.832;10.746;2023-11-21T08:54:50;6.80;;;6.17;;
8632;SDS011;4354;49.832;10.746;2023-11-21T08:57:22;7.10;;;5.80;;
8632;SDS011;4354;49.832;10.746;2023-11-21T08:59:49;8.70;;;6.00;;
8632;SDS011;4354;49.832;10.746;2023-11-21T09:02:22;6.00;;;5.00;;
8632;SDS011;4354;49.832;10.746;2023-11-21T09:04:49;6.87;;;5.00;;
8632;SDS011;4354;49.832;10.746;2023-11-21T09:07:19;6.27;;;4.70;;
8632;SDS011;4354;49.832;10.746;2023-11-21T09:09:48;5.67;;;3.87;;
8632;SDS011;4354;49.832;10.746;2023-11-21T09:12:15;4.83;;;4.10;;
8632;SDS011;4354;49.832;10.746;2023-11-21T09:14:43;5.07;;;4.20;;
8632;SDS011;4354;49.832;10.746;2023-11-21T09:17:10;6.70;;;4.30;;
8632;SDS011;4354;49.832;10.746;2023-11-21T09:19:38;5.30;;;4.10;;
8632;SDS011;4354;49.832;10.746;2023-11-21T09:22:05;5.40;;;3.97;;
8632;SDS011;4354;49.832;10.746;2023-11-21T09:24:35;4.93;;;4.00;;
8632;SDS011;4354;49.832;10.746;2023-11-21T09:27:04;4.33;;;3.90;;
8632;SDS011;4354;49.832;10.746;2023-11-21T09:29:31;4.47;;;3.57;;
8632;SDS011;4354;49.832;10.746;2023-11-21T09:31:58;5.00;;;3.53;;
8632;SDS011;4354;49.832;10.746;2023-11-21T09:34:28;5.30;;;3.80;;
8632;SDS011;4354;49.832;10.746;2023-11-21T09:36:54;4.80;;;4.00;;
8632;SDS011;4354;49.832;10.746;2023-11-21T09:39:21;5.17;;;4.67;;
8632;SDS011;4354;49.832;10.746;2023-11-21T09:41:52;5.80;;;3.73;;
8632;SDS011;4354;49.832;10.746;2023-11-21T09:44:30;4.83;;;4.13;;
8632;SDS011;4354;49.832;10.746;2023-11-21T09:47:13;8.57;;;4.30;;
8632;SDS011;4354;49.832;10.746;2023-11-21T09:49:44;4.43;;;3.63;;
8632;SDS011;4354;49.832;10.746;2023-11-21T09:52:26;5.33;;;4.40;;
8632;SDS011;4354;49.832;10.746;2023-11-21T09:54:54;6.68;;;3.75;;
8632;SDS011;4354;49.832;10.746;2023-11-21T09:57:25;4.30;;;3.30;;
8632;SDS011;4354;49.832;10.746;2023-11-21T09:59:53;6.70;;;3.40;;
8632;SDS011;4354;49.832;10.746;2023-11-21T10:02:24;4.35;;;3.20;;
8632;SDS011;4354;49.832;10.746;2023-11-21T10:04:53;4.47;;;3.20;;
8632;SDS011;4354;49.832;10.746;2023-11-21T10:07:20;3.63;;;2.80;;
8632;SDS011;4354;49.832;10.746;2023-11-21T10:09:48;3.53;;;2.92;;
8632;SDS011;4354;49.832;10.746;2023-11-21T10:12:17;5.00;;;3.25;;
8632;SDS011;4354;49.832;10.746;2023-11-21T10:14:46;5.78;;;3.42;;
8632;SDS011;4354;49.832;10.746;2023-11-21T10:17:15;3.83;;;3.13;;
8632;SDS011;4354;49.832;10.746;2023-11-21T10:19:47;3.63;;;2.97;;
8632;SDS011;4354;49.832;10.746;2023-11-21T10:22:15;5.60;;;3.58;;
8632;SDS011;4354;49.832;10.746;2023-11-21T10:24:43;3.90;;;3.20;;
8632;SDS011;4354;49.832;10.746;2023-11-21T10:27:19;3.92;;;3.05;;
8632;SDS011;4354;49.832;10.746;2023-11-21T10:29:45;5.68;;;3.72;;
8632;SDS011;4354;49.832;10.746;2023-11-21T10:32:12;4.43;;;3.42;;
8632;SDS011;4354;49.832;10.746;2023-11-21T10:34:39;6.15;;;3.67;;
8632;SDS011;4354;49.832;10.746;2023-11-21T10:37:11;4.38;;;3.60;;
8632;SDS011;4354;49.832;10.746;2023-11-21T10:39:38;5.97;;;3.63;;
8632;SDS011;4354;49.832;10.746;2023-11-21T10:42:07;6.07;;;3.40;;
8632;SDS011;4354;49.832;10.746;2023-11-21T10:44:35;6.17;;;3.77;;
8632;SDS011;4354;49.832;10.746;2023-11-21T10:47:02;5.40;;;3.33;;
8632;SDS011;4354;49.832;10.746;2023-11-21T10:49:29;4.10;;;3.10;;
8632;SDS011;4354;49.832;10.746;2023-11-21T10:51:56;6.13;;;3.20;;
8632;SDS011;4354;49.832;10.746;2023-11-21T10:54:24;5.83;;;3.37;;
8632;SDS011;4354;49.832;10.746;2023-11-21T10:56:58;6.38;;;2.88;;
8632;SDS011;4354;49.832;10.746;2023-11-21T10:59:29;3.20;;;2.53;;
8632;SDS011;4354;49.832;10.746;2023-11-21T11:01:58;3.30;;;2.37;;
8632;SDS011;4354;49.832;10.746;2023-11-21T11:04:28;5.50;;;4.00;;
8632;SDS011;4354;49.832;10.746;2023-11-21T11:06:57;4.00;;;2.97;;
8632;SDS011;4354;49.832;10.746;2023-11-21T11:09:31;5.13;;;3.50;;
8632;SDS011;4354;49.832;10.746;2023-11-21T11:12:03;4.17;;;3.13;;
8632;SDS011;4354;49.832;10.746;2023-11-21T11:14:33;5.10;;;2.90;;
8632;SDS011;4354;49.832;10.746;2023-11-21T11:17:00;4.15;;;3.03;;
8632;SDS011;4354;49.832;10.746;2023-11-21T11:19:28;4.10;;;2.83;;
8632;SDS011;4354;49.832;10.746;2023-11-21T11:25:06;4.03;;;2.95;;
8632;SDS011;4354;49.832;10.746;2023-11-21T11:27:44;3.35;;;2.30;;
8632;SDS011;4354;49.832;10.746;2023-11-21T11:30:38;4.22;;;2.05;;
8632;SDS011;4354;49.832;10.746;2023-11-21T11:33:34;3.20;;;2.38;;
8632;SDS011;4354;49.832;10.746;2023-11-21T11:38:47;2.35;;;1.70;;
8632;SDS011;4354;49.832;10.746;2023-11-21T11:41:24;3.40;;;1.60;;
8632;SDS011;4354;49.832;10.746;2023-11-21T11:43:58;3.55;;;1.58;;
8632;SDS011;4354;49.832;10.746;2023-11-21T11:49:31;2.25;;;1.70;;
8632;SDS011;4354;49.832;10.746;2023-11-21T11:55:01;4.32;;;1.65;;
8632;SDS011;4354;49.832;10.746;2023-11-21T11:57:30;2.10;;;1.90;;
8632;SDS011;4354;49.832;10.746;2023-11-21T12:00:10;2.47;;;1.77;;
8632;SDS011;4354;49.832;10.746;2023-11-21T12:02:48;2.15;;;1.73;;
8632;SDS011;4354;49.832;10.746;2023-11-21T12:05:18;2.28;;;1.52;;
8632;SDS011;4354;49.832;10.746;2023-11-21T12:07:50;1.60;;;1.33;;
8632;SDS011;4354;49.832;10.746;2023-11-21T12:10:21;1.55;;;1.27;;
8632;SDS011;4354;49.832;10.746;2023-11-21T12:13:05;2.50;;;1.30;;
8632;SDS011;4354;49.832;10.746;2023-11-21T12:15:37;2.42;;;1.60;;
8632;SDS011;4354;49.832;10.746;2023-11-21T12:18:06;3.92;;;1.40;;
8632;SDS011;4354;49.832;10.746;2023-11-21T12:20:33;2.25;;;1.23;;
8632;SDS011;4354;49.832;10.746;2023-11-21T12:23:08;4.60;;;1.65;;
8632;SDS011;4354;49.832;10.746;2023-11-21T12:25:36;2.00;;;1.50;;
8632;SDS011;4354;49.832;10.746;2023-11-21T12:28:03;2.58;;;1.60;;
8632;SDS011;4354;49.832;10.746;2023-11-21T12:30:30;2.13;;;1.30;;
8632;SDS011;4354;49.832;10.746;2023-11-21T12:32:58;2.78;;;1.23;;
8632;SDS011;4354;49.832;10.746;2023-11-21T12:35:30;2.03;;;1.00;;
8632;SDS011;4354;49.832;10.746;2023-11-21T12:38:01;2.33;;;1.15;;
8632;SDS011;4354;49.832;10.746;2023-11-21T12:40:29;14.20;;;12.90;;
8632;SDS011;4354;49.832;10.746;2023-11-21T12:42:56;4.60;;;3.67;;
8632;SDS011;4354;49.832;10.746;2023-11-21T12:45:25;2.85;;;1.60;;
8632;SDS011;4354;49.832;10.746;2023-11-21T12:47:59;3.67;;;1.77;;
8632;SDS011;4354;49.832;10.746;2023-11-21T12:50:29;3.72;;;1.45;;
8632;SDS011;4354;49.832;10.746;2023-11-21T12:53:01;1.88;;;1.55;;
8632;SDS011;4354;49.832;10.746;2023-11-21T12:55:43;2.33;;;1.60;;
8632;SDS011;4354;49.832;10.746;2023-11-21T12:58:16;2.95;;;1.70;;
8632;SDS011;4354;49.832;10.746;2023-11-21T13:00:44;3.17;;;1.92;;
8632;SDS011;4354;49.832;10.746;2023-11-21T13:03:13;3.15;;;2.05;;
8632;SDS011;4354;49.832;10.746;2023-11-21T13:05:47;4.00;;;1.85;;
8632;SDS011;4354;49.832;10.746;2023-11-21T13:08:21;5.03;;;1.85;;
8632;SDS011;4354;49.832;10.746;2023-11-21T13:10:54;4.88;;;1.88;;
8632;SDS011;4354;49.832;10.746;2023-11-21T13:13:23;4.57;;;1.98;;
8632;SDS011;4354;49.832;10.746;2023-11-21T13:15:59;2.80;;;1.73;;
8632;SDS011;4354;49.832;10.746;2023-11-21T13:18:30;4.50;;;2.35;;
8632;SDS011;4354;49.832;10.746;2023-11-21T13:20:58;5.47;;;2.45;;
8632;SDS011;4354;49.832;10.746;2023-11-21T13:23:26;5.35;;;2.00;;
8632;SDS011;4354;49.832;10.746;2023-11-21T13:25:53;3.03;;;1.60;;
8632;SDS011;4354;49.832;10.746;2023-11-21T13:28:31;4.90;;;1.85;;
8632;SDS011;4354;49.832;10.746;2023-11-21T13:31:00;5.60;;;2.22;;
8632;SDS011;4354;49.832;10.746;2023-11-21T13:33:37;2.45;;;1.80;;
8632;SDS011;4354;49.832;10.746;2023-11-21T13:36:05;4.43;;;1.65;;
8632;SDS011;4354;49.832;10.746;2023-11-21T13:38:36;2.95;;;1.30;;
8632;SDS011;4354;49.832;10.746;2023-11-21T13:41:07;3.08;;;1.50;;
8632;SDS011;4354;49.832;10.746;2023-11-21T13:43:36;3.63;;;1.80;;
8632;SDS011;4354;49.832;10.746;2023-11-21T13:46:03;4.70;;;1.70;;
8632;SDS011;4354;49.832;10.746;2023-11-21T13:48:39;4.00;;;1.45;;
8632;SDS011;4354;49.832;10.746;2023-11-21T13:51:17;2.97;;;1.23;;
8632;SDS011;4354;49.832;10.746;2023-11-21T13:53:44;4.03;;;1.38;;
8632;SDS011;4354;49.832;10.746;2023-11-21T13:56:14;5.30;;;1.67;;
8632;SDS011;4354;49.832;10.746;2023-11-21T13:58:50;3.67;;;1.77;;
8632;SDS011;4354;49.832;10.746;2023-11-21T14:01:18;4.35;;;1.60;;
8632;SDS011;4354;49.832;10.746;2023-11-21T14:03:59;5.43;;;1.63;;
8632;SDS011;4354;49.832;10.746;2023-11-21T14:06:45;5.03;;;1.60;;
8632;SDS011;4354;49.832;10.746;2023-11-21T14:09:16;4.80;;;1.83;;
8632;SDS011;4354;49.832;10.746;2023-11-21T14:11:52;6.97;;;1.67;;
8632;SDS011;4354;49.832;10.746;2023-11-21T14:14:22;5.37;;;1.50;;
8632;SDS011;4354;49.832;10.746;2023-11-21T14:16:54;3.43;;;1.80;;
8632;SDS011;4354;49.832;10.746;2023-11-21T14:19:22;7.27;;;2.67;;
8632;SDS011;4354;49.832;10.746;2023-11-21T14:21:53;10.10;;;3.77;;
8632;SDS011;4354;49.832;10.746;2023-11-21T14:24:20;10.67;;;3.83;;
8632;SDS011;4354;49.832;10.746;2023-11-21T14:26:51;8.83;;;3.40;;
8632;SDS011;4354;49.832;10.746;2023-11-21T14:29:18;5.57;;;2.07;;
8632;SDS011;4354;49.832;10.746;2023-11-21T14:31:50;6.60;;;2.67;;
8632;SDS011;4354;49.832;10.746;2023-11-21T14:34:17;7.60;;;3.07;;
8632;SDS011;4354;49.832;10.746;2023-11-21T14:36:48;5.07;;;1.90;;
8632;SDS011;4354;49.832;10.746;2023-11-21T14:39:15;4.33;;;2.30;;
8632;SDS011;4354;49.832;10.746;2023-11-21T14:41:50;3.80;;;2.07;;
8632;SDS011;4354;49.832;10.746;2023-11-21T14:44:19;5.53;;;2.17;;
8632;SDS011;4354;49.832;10.746;2023-11-21T14:46:47;7.87;;;2.40;;
8632;SDS011;4354;49.832;10.746;2023-11-21T14:49:16;5.30;;;2.20;;
8632;SDS011;4354;49.832;10.746;2023-11-21T14:51:47;3.80;;;1.87;;
8632;SDS011;4354;49.832;10.746;2023-11-21T14:54:35;4.30;;;2.07;;
8632;SDS011;4354;49.832;10.746;2023-11-21T14:57:14;6.33;;;2.30;;
8632;SDS011;4354;49.832;10.746;2023-11-21T14:59:50;4.07;;;2.27;;
8632;SDS011;4354;49.832;10.746;2023-11-21T15:02:18;4.90;;;2.50;;
8632;SDS011;4354;49.832;10.746;2023-11-21T15:05:10;4.43;;;2.37;;
8632;SDS011;4354;49.832;10.746;2023-11-21T15:07:43;4.63;;;1.87;;
8632;SDS011;4354;49.832;10.746;2023-11-21T15:10:12;5.50;;;2.70;;
8632;SDS011;4354;49.832;10.746;2023-11-21T15:12:42;6.60;;;2.77;;
8632;SDS011;4354;49.832;10.746;2023-11-21T15:15:10;6.87;;;2.80;;
8632;SDS011;4354;49.832;10.746;2023-11-21T15:17:38;5.37;;;2.77;;
8632;SDS011;4354;49.832;10.746;2023-11-21T15:20:09;8.53;;;4.17;;
8632;SDS011;4354;49.832;10.746;2023-11-21T15:22:39;15.70;;;7.27;;